createdAt,value
2023-05-11T00:02:51.052Z,13.40
2023-05-11T00:07:10.310Z,13.40
2023-05-11T00:11:28.264Z,13.40
2023-05-11T00:15:46.778Z,13.40
2023-05-11T00:20:08.079Z,13.40
2023-05-11T00:24:25.469Z,13.40
2023-05-11T00:28:43.601Z,13.40
2023-05-11T00:33:03.224Z,13.40
2023-05-11T00:37:25.864Z,13.40
2023-05-11T00:41:43.750Z,13.50
2023-05-11T00:46:02.251Z,13.50
2023-05-11T00:50:20.303Z,13.50
2023-05-11T00:54:40.742Z,13.50
2023-05-11T00:58:59.235Z,13.50
2023-05-11T01:03:17.750Z,13.40
2023-05-11T01:07:42.781Z,13.40
2023-05-11T01:12:12.310Z,13.40
2023-05-11T01:16:33.777Z,13.40
2023-05-11T01:21:01.102Z,13.40
2023-05-11T01:25:36.880Z,13.40
2023-05-11T01:30:34.952Z,13.40
2023-05-11T01:34:59.026Z,13.50
2023-05-11T01:39:21.650Z,13.50
2023-05-11T01:43:42.235Z,13.50
2023-05-11T01:48:05.513Z,13.60
2023-05-11T01:52:26.079Z,13.60
2023-05-11T01:56:45.874Z,13.60
2023-05-11T02:01:06.852Z,13.60
2023-05-11T02:05:30.404Z,13.60
2023-05-11T02:09:52.726Z,13.60
2023-05-11T02:14:14.016Z,13.60
2023-05-11T02:18:34.236Z,13.70
2023-05-11T02:22:57.124Z,13.60
2023-05-11T02:27:15.554Z,13.60
2023-05-11T02:31:39.537Z,13.70
2023-05-11T02:35:59.128Z,13.70
2023-05-11T02:40:29.902Z,13.70
2023-05-11T02:44:59.557Z,13.70
2023-05-11T02:49:23.909Z,13.70
2023-05-11T02:53:45.630Z,13.70
2023-05-11T02:58:06.840Z,13.70
2023-05-11T03:02:26.531Z,13.70
2023-05-11T03:06:44.653Z,13.60
2023-05-11T03:11:04.038Z,13.70
2023-05-11T03:15:25.296Z,13.60
2023-05-11T03:19:48.242Z,13.60
2023-05-11T03:24:13.128Z,13.60
2023-05-11T03:28:33.686Z,13.60
2023-05-11T03:32:58.767Z,13.50
2023-05-11T03:37:20.537Z,13.50
2023-05-11T03:41:42.365Z,13.50
2023-05-11T03:46:04.595Z,13.60
2023-05-11T03:50:27.090Z,13.70
2023-05-11T03:54:46.272Z,13.80
2023-05-11T03:59:04.371Z,13.80
2023-05-11T04:03:21.818Z,13.90
2023-05-11T04:07:41.354Z,13.90
2023-05-11T04:12:03.854Z,13.80
2023-05-11T04:16:23.224Z,13.70
2023-05-11T04:20:43.284Z,13.70
2023-05-11T04:25:03.032Z,13.60
2023-05-11T04:29:22.540Z,13.50
2023-05-11T04:33:43.568Z,13.50
2023-05-11T04:38:01.527Z,13.40
2023-05-11T04:42:21.016Z,13.40
2023-05-11T04:46:43.933Z,13.40
2023-05-11T04:51:05.349Z,13.50
2023-05-11T04:55:26.087Z,13.50
2023-05-11T04:59:48.672Z,13.70
2023-05-11T05:04:08.879Z,13.80
2023-05-11T05:08:26.797Z,14.00
2023-05-11T05:12:44.699Z,14.00
2023-05-11T05:17:03.786Z,14.10
2023-05-11T05:21:23.515Z,14.20
2023-05-11T05:25:41.719Z,14.30
2023-05-11T05:29:59.668Z,14.60
2023-05-11T05:34:19.111Z,14.90
2023-05-11T05:38:38.923Z,15.10
2023-05-11T05:42:57.182Z,15.40
2023-05-11T05:47:18.337Z,15.50
2023-05-11T05:51:37.496Z,15.60
2023-05-11T05:55:57.637Z,15.70
2023-05-11T06:00:16.470Z,15.90
2023-05-11T06:04:39.935Z,16.10
2023-05-11T06:08:58.896Z,16.30
2023-05-11T06:13:18.817Z,16.80
2023-05-11T06:17:36.730Z,17.20
2023-05-11T06:21:54.764Z,17.40
2023-05-11T06:26:14.463Z,17.50
2023-05-11T06:30:34.583Z,17.60
2023-05-11T06:34:55.357Z,17.80
2023-05-11T06:39:16.427Z,18.40
2023-05-11T06:43:35.635Z,19.20
2023-05-11T06:47:55.635Z,19.90
2023-05-11T06:52:13.702Z,20.40
2023-05-11T06:56:32.078Z,21.00
2023-05-11T07:00:51.600Z,21.40
2023-05-11T07:05:12.291Z,21.80
2023-05-11T07:09:32.291Z,21.80
2023-05-11T07:13:49.853Z,22.10
2023-05-11T07:18:09.497Z,22.40
2023-05-11T07:22:28.934Z,22.90
2023-05-11T07:26:47.462Z,23.20
2023-05-11T07:31:05.776Z,23.00
2023-05-11T07:35:25.389Z,22.70
2023-05-11T07:39:44.548Z,22.50
2023-05-11T07:44:02.799Z,21.90
2023-05-11T07:48:20.928Z,21.80
2023-05-11T07:52:39.927Z,21.90
2023-05-11T07:56:59.554Z,22.30
2023-05-11T08:01:17.772Z,22.80
2023-05-11T08:05:37.926Z,23.10
2023-05-11T08:09:58.371Z,23.10
2023-05-11T08:14:18.245Z,22.90
2023-05-11T08:18:36.587Z,22.60
2023-05-11T08:22:54.721Z,22.40
2023-05-11T08:27:15.320Z,22.20
2023-05-11T08:31:33.377Z,22.00
2023-05-11T08:35:51.690Z,21.40
2023-05-11T08:40:14.633Z,21.00
2023-05-11T08:44:37.987Z,20.80
2023-05-11T08:48:58.150Z,20.40
2023-05-11T08:53:16.374Z,20.20
2023-05-11T08:57:57.609Z,20.50
2023-05-11T09:02:38.913Z,21.60
2023-05-11T09:07:18.301Z,23.00
2023-05-11T09:11:56.267Z,23.60
2023-05-11T09:16:37.674Z,23.70
2023-05-11T09:21:16.724Z,23.50
2023-05-11T09:25:54.928Z,22.90
2023-05-11T09:30:35.512Z,22.60
2023-05-11T09:35:21.769Z,22.40
2023-05-11T09:40:26.355Z,22.10
2023-05-11T09:45:00.689Z,21.90
2023-05-11T09:49:43.202Z,21.80
2023-05-11T09:54:23.364Z,21.50
2023-05-11T09:59:04.201Z,21.50
2023-05-11T10:03:48.966Z,22.40
2023-05-11T10:08:30.384Z,23.30
2023-05-11T10:13:10.459Z,24.50
2023-05-11T10:17:51.557Z,25.80
2023-05-11T10:22:30.790Z,26.60
2023-05-11T10:27:09.738Z,27.40
2023-05-11T10:31:51.622Z,27.30
2023-05-11T10:36:33.296Z,26.50
2023-05-11T10:41:26.756Z,25.50
2023-05-11T10:46:18.789Z,24.30
2023-05-11T10:51:20.927Z,23.30
2023-05-11T10:56:21.386Z,22.70
2023-05-11T11:01:27.901Z,22.60
2023-05-11T11:06:07.447Z,23.10
2023-05-11T11:10:46.867Z,24.00
2023-05-11T11:15:47.928Z,25.20
2023-05-11T11:20:49.078Z,26.30
2023-05-11T11:25:52.830Z,27.20
2023-05-11T11:30:33.996Z,26.90
2023-05-11T11:35:45.959Z,26.30
2023-05-11T11:40:47.167Z,25.80
2023-05-11T11:45:32.353Z,25.30
2023-05-11T11:50:14.356Z,24.70
2023-05-11T11:54:56.017Z,24.10
2023-05-11T11:59:48.365Z,23.50
2023-05-11T12:04:46.255Z,23.20
2023-05-11T12:09:26.168Z,23.00
2023-05-11T12:14:05.248Z,22.80
2023-05-11T12:18:52.098Z,22.70
2023-05-11T12:23:32.360Z,22.50
2023-05-11T12:28:12.930Z,22.30
2023-05-11T12:32:56.664Z,22.30
2023-05-11T12:37:37.337Z,22.50
2023-05-11T12:42:20.140Z,22.50
2023-05-11T12:47:00.503Z,22.40
2023-05-11T12:52:02.292Z,22.20
2023-05-11T12:56:49.820Z,22.00
2023-05-11T13:01:29.184Z,21.80
2023-05-11T13:06:10.623Z,21.60
2023-05-11T13:10:50.561Z,21.60
2023-05-11T13:15:30.897Z,21.60
2023-05-11T13:20:20.789Z,21.60
2023-05-11T13:25:06.629Z,21.70
2023-05-11T13:29:44.141Z,21.70
2023-05-11T13:34:25.151Z,21.60
2023-05-11T13:39:03.347Z,21.60
2023-05-11T13:43:47.540Z,21.70
2023-05-11T13:48:25.765Z,21.60
2023-05-11T13:53:05.449Z,21.60
2023-05-11T13:57:44.588Z,21.50
2023-05-11T14:02:25.532Z,21.50
2023-05-11T14:07:03.823Z,21.40
2023-05-11T14:11:43.612Z,21.40
2023-05-11T14:16:25.766Z,21.30
2023-05-11T14:21:08.971Z,21.20
2023-05-11T14:25:48.306Z,21.10
2023-05-11T14:30:27.704Z,21.00
2023-05-11T14:35:07.887Z,21.00
2023-05-11T14:39:48.336Z,20.90
2023-05-11T14:44:26.349Z,21.00
2023-05-11T14:49:06.368Z,21.10
2023-05-11T14:53:45.491Z,21.20
2023-05-11T14:58:26.318Z,21.30
2023-05-11T15:03:04.893Z,21.30
2023-05-11T15:07:44.305Z,21.30
2023-05-11T15:12:24.045Z,21.20
2023-05-11T15:17:04.848Z,21.20
2023-05-11T15:21:43.373Z,21.20
2023-05-11T15:26:25.976Z,21.10
2023-05-11T15:31:05.252Z,21.00
2023-05-11T15:35:46.533Z,20.90
2023-05-11T15:40:24.388Z,20.90
2023-05-11T15:45:03.964Z,20.80
2023-05-11T15:49:43.310Z,20.80
2023-05-11T15:54:24.182Z,20.80
2023-05-11T15:59:02.479Z,20.80
2023-05-11T16:03:41.901Z,20.80
2023-05-11T16:08:24.942Z,20.80
2023-05-11T16:13:05.744Z,20.80
2023-05-11T16:17:44.933Z,20.80
2023-05-11T16:22:23.437Z,20.70
2023-05-11T16:27:02.974Z,20.60
2023-05-11T16:31:43.794Z,20.50
2023-05-11T16:36:22.172Z,20.50
2023-05-11T16:41:01.894Z,20.50
2023-05-11T16:45:41.485Z,20.60
2023-05-11T16:50:22.414Z,20.60
2023-05-11T16:55:01.433Z,20.70
2023-05-11T16:59:39.721Z,20.80
2023-05-11T17:04:19.509Z,20.70
2023-05-11T17:09:00.325Z,20.70
2023-05-11T17:13:38.528Z,20.70
2023-05-11T17:18:17.945Z,20.60
2023-05-11T17:22:58.062Z,20.60
2023-05-11T17:27:38.707Z,20.40
2023-05-11T17:32:17.261Z,20.30
2023-05-11T17:36:56.690Z,20.30
2023-05-11T17:41:35.800Z,20.20
2023-05-11T17:46:16.711Z,20.10
2023-05-11T17:50:55.112Z,20.00
2023-05-11T17:55:34.871Z,19.90
2023-05-11T18:00:15.364Z,19.80
2023-05-11T18:04:55.190Z,19.70
2023-05-11T18:09:33.223Z,19.50
2023-05-11T18:14:12.935Z,19.40
2023-05-11T18:18:52.446Z,19.30
2023-05-11T18:23:33.316Z,19.20
2023-05-11T18:28:11.598Z,19.10
2023-05-11T18:32:51.117Z,19.00
2023-05-11T18:37:30.593Z,18.90
2023-05-11T18:42:11.568Z,18.80
2023-05-11T18:46:49.478Z,18.70
2023-05-11T18:51:29.378Z,18.60
2023-05-11T18:56:11.101Z,18.50
2023-05-11T19:00:53.117Z,18.40
2023-05-11T19:05:30.834Z,18.20
2023-05-11T19:10:10.944Z,18.10
2023-05-11T19:14:50.142Z,18.10
2023-05-11T19:19:30.936Z,18.00
2023-05-11T19:24:09.852Z,18.00
2023-05-11T19:28:48.689Z,17.90
2023-05-11T19:33:28.238Z,17.80
2023-05-11T19:38:09.209Z,17.80
2023-05-11T19:42:47.299Z,17.70
2023-05-11T19:47:26.944Z,17.60
2023-05-11T19:52:07.111Z,17.50
2023-05-11T19:56:47.778Z,17.50
2023-05-11T20:01:25.655Z,17.40
2023-05-11T20:06:05.655Z,17.30
2023-05-11T20:10:44.785Z,17.30
2023-05-11T20:15:26.520Z,17.20
2023-05-11T20:20:08.648Z,17.20
2023-05-11T20:24:46.369Z,17.20
2023-05-11T20:29:26.264Z,17.20
2023-05-11T20:34:07.660Z,17.20
2023-05-11T20:38:45.245Z,17.20
2023-05-11T20:43:26.021Z,17.10
2023-05-11T20:48:04.340Z,17.10
2023-05-11T20:52:45.241Z,17.00
2023-05-11T20:57:23.665Z,16.90
2023-05-11T21:02:03.289Z,16.80
2023-05-11T21:06:42.621Z,16.70
2023-05-11T21:11:23.415Z,16.60
2023-05-11T21:16:01.711Z,16.50
2023-05-11T21:20:20.236Z,16.50
2023-05-11T21:24:38.618Z,16.40
2023-05-11T21:28:58.327Z,16.30
2023-05-11T21:33:17.017Z,16.30
2023-05-11T21:37:35.797Z,16.20
2023-05-11T21:41:53.146Z,16.20
2023-05-11T21:46:13.133Z,16.20
2023-05-11T21:50:32.689Z,16.10
2023-05-11T21:54:50.410Z,16.00
2023-05-11T21:59:08.953Z,16.00
2023-05-11T22:03:30.171Z,15.90
2023-05-11T22:07:47.769Z,15.80
2023-05-11T22:12:06.336Z,15.80
2023-05-11T22:16:23.702Z,15.70
2023-05-11T22:20:45.165Z,15.60
2023-05-11T22:25:03.314Z,15.50
2023-05-11T22:29:21.478Z,15.30
2023-05-11T22:33:39.117Z,15.20
2023-05-11T22:37:58.513Z,15.10
2023-05-11T22:42:18.179Z,15.10
2023-05-11T22:46:36.293Z,15.00
2023-05-11T22:50:55.129Z,15.00
2023-05-11T22:55:13.823Z,15.00
2023-05-11T22:59:34.777Z,14.90
2023-05-11T23:03:55.141Z,14.90
2023-05-11T23:08:12.997Z,14.80
2023-05-11T23:12:32.358Z,14.80
2023-05-11T23:16:51.972Z,14.70
2023-05-11T23:21:10.332Z,14.70
2023-05-11T23:25:28.086Z,14.70
2023-05-11T23:29:49.018Z,14.70
2023-05-11T23:34:07.959Z,14.70
2023-05-11T23:38:26.918Z,14.70
2023-05-11T23:42:46.579Z,14.60
2023-05-11T23:47:06.748Z,14.60
2023-05-11T23:51:25.925Z,14.60
2023-05-11T23:55:43.680Z,14.60
